Latest Weather Observations for Cleve Airport

IDS60801

Issued at 8:01 pm CST Sunday 28 August 2016 (issued every 30 minutes, with the page automatically refreshed every 10 minutes)

About weather observations | Map of weather stations | Latest weather observations for SA | Other Formats
Station Details ID: 018116 Name: CLEVE AERODROME Lat: -33.71 Lon: 136.50 Height: 175.0 m
Data from the previous 72 hours. | See also: Recent months at Cleve Airport
Date/Time
CST
Temp
°C
App
Temp
°C
Dew
Point
°C
Rel
Hum
%
Delta-T
°C
Wind Press
QNH
hPa
Press
MSL
hPa
Rain since
9am
mm
Dir  Spd
km/h
Gust
km/h
Spd
kts
Gust
kts
28/08:00pm 17.8 12.6 3.7 39 6.7 N 20 26 11 14 1011.2 - 0.0
28/07:30pm 18.6 13.0 3.3 36 7.2 NNW 22 30 12 16 1011.3 - 0.0
28/07:00pm 19.1 12.6 2.9 34 7.6 NNW 26 35 14 19 1011.0 - 0.0
28/06:30pm 19.0 12.1 2.8 34 7.6 N 28 37 15 20 1010.6 - 0.0
28/06:00pm 19.5 12.2 2.4 32 8.0 NNW 30 43 16 23 1010.4 1010.5 0.0
28/05:44pm 19.9 12.2 2.3 31 8.2 NNW 32 50 17 27 1010.4 - 0.0
28/05:30pm 19.8 10.8 2.6 32 8.1 N 39 54 21 29 1010.0 - 0.0
28/05:00pm 20.0 11.0 2.4 31 8.2 N 39 57 21 31 1008.9 - 0.0
28/04:30pm 20.6 8.7 2.4 30 8.5 N 54 76 29 41 1008.4 - 0.0
28/04:00pm 21.5 11.2 2.7 29 8.9 N 46 65 25 35 1008.1 - 0.0
28/03:32pm 21.6 11.4 3.3 30 8.8 N 46 65 25 35 1008.0 - 0.0
28/03:30pm 21.4 11.5 2.6 29 8.9 N 44 61 24 33 1008.1 - 0.0
28/03:03pm 21.8 11.1 2.5 28 9.2 N 48 67 26 36 1008.2 - 0.0
28/03:00pm 22.1 11.5 3.3 29 9.1 N 48 65 26 35 1008.2 1008.2 0.0
28/02:30pm 22.3 10.6 3.4 29 9.2 N 54 72 29 39 1008.6 - 0.0
28/02:00pm 21.8 11.6 3.0 29 9.0 N 46 65 25 35 1009.1 - 0.0
28/01:31pm 21.7 11.2 3.4 30 8.8 N 48 67 26 36 1009.6 - 0.0
28/01:30pm 21.9 11.4 3.6 30 8.9 N 48 61 26 33 1009.6 - 0.0
28/01:12pm 21.6 11.0 3.3 30 8.8 N 48 69 26 37 1010.0 - 0.0
28/01:00pm 21.1 10.5 3.3 31 8.5 N 48 61 26 33 1010.2 - 0.0
28/12:30pm 20.9 10.5 4.0 33 8.2 N 48 67 26 36 1010.9 - 0.0
28/12:00pm 19.8 8.9 3.5 34 7.8 N 50 76 27 41 1011.4 1011.5 0.0
28/11:30am 19.6 8.3 3.7 35 7.6 N 52 72 28 39 1011.7 - 0.0
28/11:02am 18.7 7.0 3.3 36 7.3 N 54 72 29 39 1012.4 - 0.0
28/11:00am 18.6 6.9 3.3 36 7.2 N 54 70 29 38 1012.4 - 0.0
28/10:30am 17.3 6.0 3.2 39 6.6 N 52 72 28 39 1012.6 - 0.0
28/10:00am 16.5 5.9 2.9 40 6.2 N 48 67 26 36 1012.7 - 0.0
28/09:37am 15.5 4.4 2.7 42 5.8 N 50 69 27 37 1013.1 - 0.0
28/09:30am 15.4 4.4 2.9 43 5.7 N 50 65 27 35 1013.2 - 0.0
28/09:05am 15.0 3.5 2.2 42 5.7 N 52 70 28 38 1013.3 - 0.0
28/09:00am 14.8 3.7 2.4 43 5.6 N 50 67 27 36 1013.3 1013.3 0.0
28/08:30am 13.8 4.0 2.1 45 5.2 N 43 63 23 34 1013.6 - 0.0
28/08:16am 13.8 3.7 1.8 44 5.3 N 44 63 24 34 1013.7 - 0.0
28/08:00am 13.5 3.4 1.8 45 5.1 N 44 57 24 31 1013.5 - 0.0
28/07:30am 13.9 3.4 1.5 43 5.4 N 46 57 25 31 1013.4 - 0.0
28/07:03am 13.8 4.6 1.5 43 5.4 N 39 61 21 33 1013.4 - 0.0
28/07:00am 13.6 4.5 1.6 44 5.2 N 39 54 21 29 1013.4 - 0.0
28/06:30am 13.7 3.8 1.4 43 5.3 N 43 56 23 30 1013.4 - 0.0
28/06:00am 14.3 4.4 1.6 42 5.6 N 43 57 23 31 1013.3 1013.3 0.0
28/05:30am 14.0 4.9 1.6 43 5.4 N 39 50 21 27 1013.3 - 0.0
28/05:00am 13.9 5.2 1.9 44 5.3 N 37 46 20 25 1013.3 - 0.0
28/04:30am 14.1 5.0 1.7 43 5.4 N 39 52 21 28 1013.1 - 0.0
28/04:00am 14.4 5.3 1.7 42 5.6 N 39 54 21 29 1013.2 - 0.0
28/03:30am 14.3 5.5 1.6 42 5.6 N 37 50 20 27 1013.3 - 0.0
28/03:00am 14.3 5.5 1.6 42 5.6 N 37 48 20 26 1013.7 1013.7 0.0
28/02:30am 14.1 5.4 1.7 43 5.4 N 37 46 20 25 1014.0 - 0.0
28/02:00am 14.1 5.3 1.4 42 5.5 N 37 50 20 27 1014.4 - 0.0
28/01:30am 14.0 5.2 1.6 43 5.4 N 37 50 20 27 1014.8 - 0.0
28/01:00am 14.1 5.7 1.7 43 5.4 N 35 46 19 25 1015.2 - 0.0
28/12:30am 13.8 6.4 1.8 44 5.3 N 30 41 16 22 1015.4 - 0.0
28/12:00am 13.6 6.3 2.2 46 5.0 N 30 37 16 20 1016.0 1016.1 0.0
 
Date/Time
CST
Temp
°C
App
Temp
°C
Dew
Point
°C
Rel
Hum
%
Delta-T
°C
Wind Press
QNH
hPa
Press
MSL
hPa
Rain since
9am
mm
Dir  Spd
km/h
Gust
km/h
Spd
kts
Gust
kts
27/11:30pm 13.9 7.7 1.9 44 5.3 N 24 32 13 17 1016.1 - 0.0
27/11:00pm 13.9 8.1 2.2 45 5.2 N 22 32 12 17 1016.3 - 0.0
27/10:30pm 13.5 8.7 2.7 48 4.8 NNE 17 26 9 14 1016.5 - 0.0
27/10:00pm 11.6 8.5 3.6 58 3.6 NE 9 19 5 10 1016.7 - 0.0
27/09:30pm 9.7 6.6 3.7 66 2.6 ENE 9 11 5 6 1016.7 - 0.0
27/09:00pm 10.6 7.6 3.9 63 3.0 ENE 9 11 5 6 1017.0 1017.1 0.0
27/08:30pm 11.3 7.5 3.8 60 3.4 N 13 15 7 8 1017.0 - 0.0
27/08:00pm 12.8 9.6 2.9 51 4.4 NNW 9 13 5 7 1016.9 - 0.0
27/07:30pm 12.4 8.5 3.4 54 4.0 N 13 17 7 9 1016.6 - 0.0
27/07:00pm 14.0 9.7 3.5 49 4.8 N 15 20 8 11 1016.6 - 0.0
27/06:30pm 14.0 9.8 3.8 50 4.7 N 15 20 8 11 1016.7 - 0.0
27/06:00pm 14.4 10.6 3.8 49 4.9 N 13 19 7 10 1016.5 1016.6 0.0
27/05:30pm 15.0 11.3 4.4 49 5.0 N 13 17 7 9 1016.6 - 0.0
27/05:00pm 16.3 11.6 3.4 42 6.0 NNW 17 22 9 12 1016.5 - 0.0
27/04:30pm 17.1 11.4 2.7 38 6.6 NNW 22 33 12 18 1016.4 - 0.0
27/04:00pm 18.2 11.7 2.9 36 7.1 N 26 37 14 20 1016.5 - 0.0
27/03:30pm 17.7 10.5 3.2 38 6.8 N 30 37 16 20 1016.6 - 0.0
27/03:00pm 17.8 11.9 4.0 40 6.5 N 24 32 13 17 1016.6 1016.7 0.0
27/02:30pm 18.1 11.2 2.8 36 7.1 N 28 41 15 22 1016.8 - 0.0
27/02:00pm 17.4 11.4 3.3 39 6.6 NNW 24 39 13 21 1017.6 - 0.0
27/01:30pm 19.0 11.3 2.4 33 7.7 NNW 32 54 17 29 1018.1 - 0.0
27/01:21pm 18.7 11.3 2.1 33 7.6 NNW 30 54 16 29 1018.2 - 0.0
27/01:00pm 18.9 11.3 2.7 34 7.6 NNW 32 46 17 25 1018.7 - 0.0
27/12:30pm 18.4 10.8 3.1 36 7.2 NNW 32 43 17 23 1019.0 - 0.0
27/12:00pm 18.1 10.8 2.4 35 7.2 NNW 30 43 16 23 1019.3 1019.3 0.0
27/11:30am 17.4 9.6 2.6 37 6.8 NNW 33 46 18 25 1019.7 - 0.0
27/11:00am 17.0 9.7 2.2 37 6.7 NNW 30 43 16 23 1020.3 - 0.0
27/10:30am 16.1 8.2 1.0 36 6.6 NNW 32 48 17 26 1020.5 - 0.0
27/10:25am 16.0 8.5 1.3 37 6.5 NNW 30 48 16 26 1020.6 - 0.0
27/10:00am 15.0 7.3 3.5 46 5.3 N 33 44 18 24 1021.0 - 0.0
27/09:30am 13.4 5.9 3.5 51 4.5 N 32 41 17 22 1020.9 - 0.0
27/09:00am 12.2 4.7 3.2 54 4.0 N 32 43 17 23 1021.0 1021.1 0.0
27/08:30am 11.2 4.3 2.5 55 3.8 N 28 35 15 19 1021.1 - 0.0
27/08:00am 10.0 3.4 2.1 58 3.4 N 26 33 14 18 1021.1 - 0.0
27/07:30am 8.3 2.2 2.5 67 2.5 N 24 33 13 18 1021.1 - 0.0
27/07:00am 7.5 0.6 2.6 71 2.1 N 28 33 15 18 1020.9 - 0.0
27/06:30am 7.7 1.6 2.8 71 2.1 N 24 32 13 17 1020.5 - 0.0
27/06:00am 7.7 1.3 3.4 74 1.8 N 26 33 14 18 1020.6 1020.7 0.0
27/05:30am 7.7 1.4 3.6 75 1.8 N 26 33 14 18 1020.5 - 0.0
27/05:00am 7.2 0.9 3.8 79 1.5 N 26 32 14 17 1020.8 - 0.0
27/04:30am 7.2 1.2 3.6 78 1.5 N 24 30 13 16 1020.4 - 0.0
27/04:00am 7.4 1.9 3.8 78 1.6 N 22 26 12 14 1020.3 - 0.0
27/03:30am 7.3 2.2 4.1 80 1.4 N 20 26 11 14 1020.9 - 0.0
27/03:00am 7.3 3.1 3.9 79 1.5 N 15 20 8 11 1021.0 1021.1 0.0
27/02:30am 7.3 2.4 4.3 81 1.3 N 19 22 10 12 1021.4 - 0.0
27/02:00am 7.1 2.9 3.7 79 1.5 NNW 15 20 8 11 1021.9 - 0.0
27/01:30am 7.2 2.7 4.0 80 1.4 N 17 19 9 10 1022.2 - 0.0
27/01:00am 7.1 3.3 3.7 79 1.5 N 13 19 7 10 1022.3 - 0.0
27/12:30am 7.0 3.8 3.1 76 1.7 NNW 9 17 5 9 1022.4 - 0.0
27/12:00am 7.8 2.6 3.7 75 1.8 N 20 24 11 13 1022.4 1022.5 0.0
 
Date/Time
CST
Temp
°C
App
Temp
°C
Dew
Point
°C
Rel
Hum
%
Delta-T
°C
Wind Press
QNH
hPa
Press
MSL
hPa
Rain since
9am
mm
Dir  Spd
km/h
Gust
km/h
Spd
kts
Gust
kts
26/11:30pm 7.9 2.7 3.6 74 1.9 NNE 20 24 11 13 1022.4 - 0.0
26/11:00pm 8.0 2.8 3.7 74 1.9 N 20 24 11 13 1023.0 - 0.0
26/10:30pm 7.5 2.3 3.7 77 1.6 N 20 24 11 13 1022.9 - 0.0
26/10:00pm 7.5 2.4 4.1 79 1.5 N 20 26 11 14 1023.1 - 0.0
26/09:30pm 7.1 2.3 4.4 83 1.2 NNE 19 20 10 11 1023.3 - 0.0
26/09:00pm 7.2 3.6 5.2 87 0.9 NNE 13 17 7 9 1023.6 1023.7 0.0
26/08:30pm 6.8 2.8 5.1 89 0.8 NNE 15 19 8 10 1023.5 - 0.0
26/08:00pm 6.0 2.3 4.3 89 0.7 NNE 13 15 7 8 1023.6 - 0.0
26/07:30pm 6.3 2.6 4.5 88 0.8 NNE 13 15 7 8 1023.4 - 0.0
26/07:00pm 6.6 3.2 4.1 84 1.1 NE 11 13 6 7 1023.3 - 0.0
26/06:30pm 7.3 4.3 4.3 81 1.3 E 9 11 5 6 1023.2 - 0.0
26/06:00pm 9.3 5.7 5.1 75 1.9 E 13 17 7 9 1023.0 1023.1 0.0
26/05:30pm 11.6 8.4 6.9 73 2.3 ENE 13 15 7 8 1022.7 - 0.0
26/05:00pm 13.4 10.7 7.4 67 3.0 E 11 15 6 8 1022.5 - 0.0
26/04:30pm 12.7 10.0 7.4 70 2.6 E 11 13 6 7 1022.5 - 0.0
26/04:00pm 12.9 9.7 6.9 67 2.9 ESE 13 17 7 9 1022.5 - 0.0
26/03:30pm 13.8 11.0 6.9 63 3.4 E 11 17 6 9 1022.5 - 0.0
26/03:00pm 14.3 11.2 7.4 63 3.4 SSE 13 19 7 10 1022.7 1022.8 0.0
26/02:30pm 15.0 12.2 7.1 59 3.9 SSW 11 15 6 8 1022.9 - 0.0
26/02:00pm 15.7 12.9 5.0 49 5.1 WSW 9 17 5 9 1023.2 - 0.0
26/01:30pm 14.5 11.5 4.2 50 4.8 SSW 9 15 5 8 1023.5 - 0.0
26/01:00pm 14.1 11.8 5.5 56 4.1 W 7 13 4 7 1023.9 - 0.0
26/12:30pm 14.3 12.3 6.2 58 3.9 WSW 6 13 3 7 1024.5 - 0.0
26/12:00pm 13.5 10.9 5.9 60 3.6 W 9 13 5 7 1024.9 1025.0 0.0
26/11:30am 12.5 10.6 6.8 68 2.8 SW 6 15 3 8 1025.3 - 0.0
26/11:00am 11.6 9.0 7.9 78 1.8 WSW 11 17 6 9 1025.6 - 0.0
26/10:30am 11.7 10.3 7.4 75 2.1 W 4 9 2 5 1025.6 - 0.0
26/10:00am 12.1 10.4 8.2 77 1.9 SSW 7 11 4 6 1025.9 - 0.0
26/09:30am 11.9 11.1 9.6 86 1.2 NE 4 7 2 4 1026.1 - 0.0
26/09:00am 10.5 9.8 9.9 96 0.3 E 4 7 2 4 1026.1 1026.2 0.0
26/08:30am 9.3 7.8 9.3 100 0.0 NNW 7 7 4 4 1025.8 - 0.0
26/08:00am 7.3 5.3 7.3 100 0.0 W 7 9 4 5 1025.7 - 0.0
26/07:30am 6.3 3.7 6.3 100 0.0 WNW 9 13 5 7 1025.4 - 0.0
26/07:00am 6.8 4.0 6.8 100 0.0 N 11 13 6 7 1025.1 - 0.0
26/06:30am 7.0 4.6 7.0 100 0.0 NNE 9 11 5 6 1024.8 - 0.0
26/06:00am 7.2 4.8 7.2 100 0.0 N 9 11 5 6 1024.6 1024.7 0.0
26/05:30am 6.6 5.1 6.6 100 0.0 NW 4 6 2 3 1024.1 - 0.0
26/05:00am 6.1 4.4 6.1 100 0.0 WSW 4 7 2 4 1023.9 - 0.0
26/04:30am 5.5 3.3 5.5 100 0.0 WNW 6 9 3 5 1023.8 - 0.0
26/04:00am 4.1 2.0 3.8 98 0.1 NNW 4 7 2 4 1023.5 - 0.0
26/03:30am 5.1 2.2 4.8 98 0.1 NNW 9 11 5 6 1023.6 - 0.0
26/03:00am 5.5 2.3 5.2 98 0.1 WNW 11 13 6 7 1023.7 1023.8 0.0
26/02:30am 4.7 1.8 4.4 98 0.1 WNW 9 11 5 6 1023.9 - 0.0
26/02:00am 5.0 1.7 4.7 98 0.1 W 11 15 6 8 1024.0 - 0.0
26/01:30am 4.3 0.9 4.0 98 0.1 WNW 11 13 6 7 1024.0 - 0.0
26/01:00am 3.5 0.3 3.1 97 0.2 WNW 9 11 5 6 1024.0 - 0.0
26/12:30am 4.1 1.0 3.7 97 0.2 WNW 9 9 5 5 1023.9 - 0.0
26/12:00am 4.0 0.9 3.6 97 0.2 WNW 9 11 5 6 1023.8 1023.9 0.0
 
Date/Time
CST
Temp
°C
App
Temp
°C
Dew
Point
°C
Rel
Hum
%
Delta-T
°C
Wind Press
QNH
hPa
Press
MSL
hPa
Rain since
9am
mm
Dir  Spd
km/h
Gust
km/h
Spd
kts
Gust
kts
25/11:30pm 3.5 0.7 2.9 96 0.2 NW 7 9 4 5 1023.8 - 0.0
25/11:00pm 3.4 1.8 2.7 95 0.3 CALM 0 0 0 0 1023.8 - 0.0
25/10:30pm 3.8 2.3 3.1 95 0.3 CALM 0 0 0 0 1023.9 - 0.0
25/10:00pm 3.9 2.4 3.0 94 0.4 CALM 0 0 0 0 1023.8 - 0.0
25/09:30pm 4.1 2.6 3.1 93 0.4 CALM 0 0 0 0 1023.6 - 0.0
25/09:00pm 4.3 2.9 3.3 93 0.4 CALM 0 0 0 0 1023.4 1023.5 0.0
25/08:30pm 5.3 4.0 4.0 91 0.6 CALM 0 0 0 0 1023.3 - 0.0

Other Formats:

Comma delimited format used in spreadsheet applications
http://www.bom.gov.au/fwo/IDS60801/IDS60801.94662.axf

JavaScript Object Notation format (JSON) in row-major order
http://www.bom.gov.au/fwo/IDS60801/IDS60801.94662.json